Time;durP1;ratioP1;P1;durP2;ratioP2;P2;SDS_P1;SDS_P2;PMS_P1;PMS_P2;Temp;Humidity;BMP_temperature;BMP_pressure;BME280_temperature;BME280_humidity;BME280_pressure;Samples;Min_cycle;Max_cycle;Signal;HPM_P1;HPM_P2
2023/01/18 00:02:02;;;;;;;67.13;30.30;;;;;;;0.96;100.00;97730.09;5033933;23;20383;-65
2023/01/18 00:04:29;;;;;;;71.00;31.00;;;;;;;1.04;100.00;97730.13;5050774;23;20378;-65
2023/01/18 00:06:56;;;;;;;68.13;29.87;;;;;;;1.06;100.00;97730.00;5028043;23;20347;-65
2023/01/18 00:09:22;;;;;;;74.57;30.97;;;;;;;0.88;100.00;97730.00;5039692;23;20370;-65
2023/01/18 00:11:49;;;;;;;64.57;30.10;;;;;;;0.80;100.00;97722.09;5015970;23;21656;-63
2023/01/18 00:14:15;;;;;;;69.00;30.70;;;;;;;0.80;100.00;97725.53;5017099;23;20380;-65
2023/01/18 00:16:42;;;;;;;67.37;30.83;;;;;;;0.77;100.00;97719.75;5032060;23;20205;-64
2023/01/18 00:19:11;;;;;;;70.43;30.53;;;;;;;0.74;100.00;97726.13;5020366;23;22022;-63
2023/01/18 00:21:39;;;;;;;70.03;32.13;;;;;;;0.73;100.00;97727.09;5043578;23;20275;-64
2023/01/18 00:24:09;;;;;;;69.50;31.23;;;;;;;0.73;100.00;97726.28;5033784;23;20204;-63
2023/01/18 00:26:36;;;;;;;74.07;30.57;;;;;;;0.69;100.00;97715.28;5024117;23;20322;-63
2023/01/18 00:29:03;;;;;;;71.37;32.30;;;;;;;0.68;100.00;97718.03;5021097;23;20693;-67
2023/01/18 00:31:30;;;;;;;72.83;32.40;;;;;;;0.72;100.00;97711.53;5004047;23;25417;-66
2023/01/18 00:33:57;;;;;;;75.33;32.90;;;;;;;0.68;100.00;97711.03;5025458;23;20208;-65
2023/01/18 00:36:23;;;;;;;75.80;33.33;;;;;;;0.66;100.00;97706.91;5023511;23;20249;-64
2023/01/18 00:38:51;;;;;;;69.53;31.40;;;;;;;0.64;100.00;97712.28;5026125;23;23812;-64
2023/01/18 00:41:19;;;;;;;73.27;33.40;;;;;;;0.63;100.00;97708.00;5004254;23;20213;-65
2023/01/18 00:43:46;;;;;;;72.53;32.27;;;;;;;0.71;100.00;97705.50;5035387;23;20213;-66
2023/01/18 00:46:18;;;;;;;65.40;30.20;;;;;;;0.79;100.00;97700.31;5003128;23;20205;-64
2023/01/18 00:48:45;;;;;;;70.53;30.27;;;;;;;0.78;100.00;97692.63;5006399;23;21202;-63
2023/01/18 00:51:15;;;;;;;66.20;29.97;;;;;;;0.80;100.00;97695.91;5036541;23;20208;-63
2023/01/18 00:53:45;;;;;;;70.53;31.80;;;;;;;0.83;100.00;97688.56;5003930;23;20319;-64
2023/01/18 00:56:14;;;;;;;71.10;30.00;;;;;;;0.84;100.00;97690.22;5008258;23;20319;-64
2023/01/18 00:58:41;;;;;;;71.43;31.60;;;;;;;0.78;100.00;97680.34;5039111;23;20218;-65
2023/01/18 01:01:08;;;;;;;75.17;32.40;;;;;;;0.81;100.00;97679.22;5023485;23;20205;-64
2023/01/18 01:06:43;;;;;;;77.40;32.93;;;;;;;0.67;100.00;97670.13;5026587;23;20209;-65
2023/01/18 01:09:20;;;;;;;76.83;33.17;;;;;;;0.67;100.00;97670.13;5034846;23;21466;-63
2023/01/18 01:28:23;;;;;;;63.33;29.13;;;;;;;0.79;100.00;97653.19;5043968;23;20205;-66
2023/01/18 01:30:50;;;;;;;67.93;29.90;;;;;;;0.78;100.00;97648.94;5028082;23;20371;-63
2023/01/18 01:33:17;;;;;;;68.33;29.33;;;;;;;0.81;100.00;97647.81;5016138;23;20628;-62
2023/01/18 01:35:44;;;;;;;65.50;29.03;;;;;;;0.86;100.00;97644.75;5047693;23;20234;-65
2023/01/18 01:38:10;;;;;;;59.67;28.27;;;;;;;0.89;100.00;97644.44;5025754;23;20449;-62
2023/01/18 01:40:37;;;;;;;61.43;26.57;;;;;;;0.92;100.00;97639.72;5032278;23;20296;-63
2023/01/18 01:43:08;;;;;;;58.67;26.67;;;;;;;0.98;100.00;97643.50;5017795;23;20212;-64
2023/01/18 01:45:35;;;;;;;64.80;27.43;;;;;;;1.03;100.00;97641.25;5005025;23;20772;-61
2023/01/18 01:48:02;;;;;;;60.63;27.53;;;;;;;0.96;100.00;97650.69;5024402;23;22646;-62
2023/01/18 01:50:34;;;;;;;63.17;27.90;;;;;;;1.04;100.00;97658.63;5006246;23;20208;-63
2023/01/18 01:53:01;;;;;;;61.77;27.70;;;;;;;1.00;100.00;97657.28;5006546;23;20272;-63
2023/01/18 01:55:34;;;;;;;63.57;28.17;;;;;;;0.95;100.00;97657.72;5025401;23;20935;-64
2023/01/18 01:58:02;;;;;;;66.60;29.73;;;;;;;0.90;100.00;97653.94;5022257;23;20598;-66
2023/01/18 02:00:29;;;;;;;69.80;30.03;;;;;;;0.87;100.00;97649.00;5019985;23;20210;-64
2023/01/18 02:03:00;;;;;;;61.83;26.77;;;;;;;0.90;100.00;97643.47;5031359;23;20206;-62
2023/01/18 02:05:28;;;;;;;66.03;28.63;;;;;;;0.82;100.00;97644.25;5024410;23;20220;-64
2023/01/18 02:07:58;;;;;;;62.23;28.40;;;;;;;0.94;100.00;97648.25;5021850;23;21273;-63
2023/01/18 02:10:25;;;;;;;68.80;29.50;;;;;;;0.83;100.00;97649.31;5005966;23;20213;-61
2023/01/18 02:12:53;;;;;;;70.03;28.67;;;;;;;0.76;100.00;97645.66;5042678;23;21784;-65
2023/01/18 02:15:21;;;;;;;62.40;28.33;;;;;;;0.77;100.00;97652.56;4986717;23;20255;-61
2023/01/18 02:18:05;;;;;;;67.33;29.53;;;;;;;0.76;100.00;97650.88;5017465;23;20205;-63
2023/01/18 02:21:02;;;;;;;69.20;28.47;;;;;;;0.74;100.00;97655.44;5009439;23;20287;-63
2023/01/18 02:23:33;;;;;;;67.37;29.30;;;;;;;0.75;100.00;97662.34;5028828;23;20209;-64
2023/01/18 02:26:23;;;;;;;68.23;30.07;;;;;;;0.66;100.00;97647.53;5034673;23;20374;-64
2023/01/18 02:29:00;;;;;;;68.30;28.70;;;;;;;0.71;100.00;97652.31;5009426;23;20434;-62
2023/01/18 02:31:33;;;;;;;64.73;29.37;;;;;;;0.66;100.00;97644.94;5015242;23;20205;-63
2023/01/18 02:34:15;;;;;;;67.00;29.13;;;;;;;0.67;100.00;97649.19;5019546;23;23693;-63
2023/01/18 02:37:00;;;;;;;68.37;29.83;;;;;;;0.69;100.00;97649.03;5006080;23;20244;-64
2023/01/18 02:39:37;;;;;;;73.20;29.27;;;;;;;0.70;100.00;97648.88;5031570;23;20212;-62
2023/01/18 02:48:02;;;;;;;68.13;29.00;;;;;;;0.75;100.00;97643.19;5033056;23;20209;-63
2023/01/18 02:50:28;;;;;;;65.80;28.30;;;;;;;0.79;100.00;97647.97;5028317;23;20697;-63
2023/01/18 02:52:55;;;;;;;59.10;27.37;;;;;;;0.75;100.00;97651.88;5026313;23;20288;-64
2023/01/18 02:55:46;;;;;;;60.93;28.30;;;;;;;0.82;100.00;97645.06;5018893;23;20236;-62
2023/01/18 02:58:33;;;;;;;59.30;26.20;;;;;;;0.80;100.00;97641.78;5042273;23;20291;-61
2023/01/18 03:01:14;;;;;;;63.63;27.40;;;;;;;0.81;100.00;97632.94;5024286;23;20215;-62
2023/01/18 03:03:43;;;;;;;56.97;26.33;;;;;;;0.87;100.00;97641.13;5034003;23;20569;-62
2023/01/18 03:06:09;;;;;;;62.17;26.50;;;;;;;0.81;100.00;97638.16;5038991;23;23845;-63
2023/01/18 03:08:45;;;;;;;61.30;25.43;;;;;;;0.81;100.00;97626.88;5045507;23;20318;-63
2023/01/18 03:11:17;;;;;;;59.50;25.30;;;;;;;0.82;100.00;97623.31;5024217;23;20267;-62
2023/01/18 03:13:56;;;;;;;62.80;25.03;;;;;;;0.83;100.00;97623.13;5032233;23;20256;-63
2023/01/18 03:16:25;;;;;;;55.87;24.07;;;;;;;0.80;100.00;97626.06;5021253;23;20269;-62
2023/01/18 03:21:52;;;;;;;51.97;23.30;;;;;;;0.77;100.00;97615.91;5033967;23;20274;-63
2023/01/18 03:24:21;;;;;;;57.07;23.83;;;;;;;0.78;100.00;97612.31;5026714;23;20209;-63
2023/01/18 03:26:51;;;;;;;53.73;23.97;;;;;;;0.79;100.00;97606.06;5046792;23;20352;-63
2023/01/18 03:35:09;;;;;;;55.20;23.73;;;;;;;0.79;100.00;97582.53;5063620;23;20331;-69
2023/01/18 03:37:39;;;;;;;51.13;23.67;;;;;;;0.67;100.00;97572.47;5017165;23;20607;-68
2023/01/18 03:40:12;;;;;;;54.87;23.40;;;;;;;0.70;100.00;97565.13;5040895;23;20208;-72
2023/01/18 03:43:04;;;;;;;60.83;24.83;;;;;;;0.70;100.00;97562.50;5049531;23;20301;-69
2023/01/18 03:45:37;;;;;;;59.37;23.07;;;;;;;0.65;100.00;97556.91;5062644;23;21372;-69
2023/01/18 03:48:06;;;;;;;54.60;24.27;;;;;;;0.60;100.00;97551.31;5016899;23;20367;-73
2023/01/18 03:50:48;;;;;;;53.30;22.83;;;;;;;0.58;100.00;97551.47;5025101;23;20374;-69
2023/01/18 03:53:41;;;;;;;52.00;22.83;;;;;;;0.62;100.00;97544.16;5042905;23;21732;-74
2023/01/18 03:56:36;;;;;;;50.70;22.13;;;;;;;0.63;100.00;97533.53;5034002;23;22148;-71
2023/01/18 03:59:04;;;;;;;53.00;21.63;;;;;;;0.62;100.00;97531.88;5027930;23;20593;-75
2023/01/18 04:01:30;;;;;;;55.53;23.87;;;;;;;0.63;100.00;97517.00;5020712;23;21751;-68
2023/01/18 04:03:57;;;;;;;53.97;22.47;;;;;;;0.58;100.00;97519.25;5021710;23;20579;-69
2023/01/18 04:06:24;;;;;;;53.60;22.87;;;;;;;0.57;100.00;97504.53;5061873;23;20211;-70
2023/01/18 04:08:51;;;;;;;50.77;21.27;;;;;;;0.57;100.00;97501.94;5043612;23;20239;-70
2023/01/18 04:11:19;;;;;;;56.90;22.70;;;;;;;0.65;100.00;97501.97;5063741;23;21261;-80
2023/01/18 04:13:45;;;;;;;56.30;22.30;;;;;;;0.61;100.00;97491.00;5073681;23;21628;-71
2023/01/18 04:16:12;;;;;;;59.90;23.33;;;;;;;0.62;100.00;97492.63;5052651;23;20211;-74
2023/01/18 04:18:38;;;;;;;56.10;23.50;;;;;;;0.60;100.00;97493.75;5072911;23;20207;-68
2023/01/18 04:21:05;;;;;;;52.27;22.47;;;;;;;0.63;100.00;97496.91;5078569;23;20264;-69
2023/01/18 04:23:31;;;;;;;59.13;22.23;;;;;;;0.60;100.00;97483.28;5090393;23;21585;-69
2023/01/18 04:25:58;;;;;;;59.60;23.23;;;;;;;0.64;100.00;97484.63;5073868;23;20246;-76
2023/01/18 04:28:24;;;;;;;64.40;23.70;;;;;;;0.64;100.00;97489.88;5069615;23;21186;-75
2023/01/18 04:30:52;;;;;;;61.50;23.73;;;;;;;0.65;100.00;97498.53;5064407;23;20200;-69
2023/01/18 04:33:20;;;;;;;59.03;23.67;;;;;;;0.66;100.00;97494.97;5068804;23;20320;-68
2023/01/18 04:35:47;;;;;;;61.60;24.30;;;;;;;0.63;100.00;97498.69;5049860;23;20218;-73
2023/01/18 04:38:14;;;;;;;73.20;25.30;;;;;;;0.62;100.00;97494.44;5053654;23;20211;-73
2023/01/18 04:40:41;;;;;;;66.10;24.90;;;;;;;0.63;100.00;97494.28;5071857;23;20394;-73
2023/01/18 04:43:08;;;;;;;69.90;24.73;;;;;;;0.66;100.00;97494.97;5067002;23;21529;-69
2023/01/18 04:45:34;;;;;;;74.70;25.57;;;;;;;0.70;100.00;97496.25;5079496;23;20340;-70
2023/01/18 04:48:01;;;;;;;67.97;25.87;;;;;;;0.71;100.00;97490.06;5068453;23;20207;-69
2023/01/18 04:50:27;;;;;;;67.47;25.73;;;;;;;0.72;100.00;97492.50;5058425;23;20222;-71
2023/01/18 04:52:54;;;;;;;72.93;25.53;;;;;;;0.75;100.00;97492.22;5055931;23;20215;-69
2023/01/18 04:55:21;;;;;;;74.27;26.10;;;;;;;0.71;100.00;97488.28;5074936;23;20280;-70
2023/01/18 04:57:55;;;;;;;74.07;26.20;;;;;;;0.72;100.00;97492.50;5049810;23;20288;-72
2023/01/18 05:00:23;;;;;;;73.40;26.30;;;;;;;0.79;100.00;97495.34;5081645;23;22539;-71
2023/01/18 05:02:49;;;;;;;71.63;25.97;;;;;;;0.73;100.00;97494.16;5068437;23;20204;-72
2023/01/18 05:05:16;;;;;;;71.57;26.00;;;;;;;0.79;100.00;97503.19;5072155;23;20404;-71
2023/01/18 05:07:43;;;;;;;73.17;25.20;;;;;;;0.88;100.00;97496.22;5092943;23;21604;-70
2023/01/18 05:10:10;;;;;;;75.23;25.73;;;;;;;0.84;100.00;97498.31;5068892;23;20219;-69
2023/01/18 05:12:36;;;;;;;74.97;26.33;;;;;;;0.84;100.00;97506.16;5076045;23;20212;-70
2023/01/18 05:15:04;;;;;;;78.00;26.57;;;;;;;0.84;100.00;97501.75;5068114;23;21718;-69
2023/01/18 05:17:33;;;;;;;75.03;24.93;;;;;;;0.90;100.00;97502.91;5094408;23;22529;-73
2023/01/18 05:20:00;;;;;;;78.27;26.10;;;;;;;0.92;100.00;97494.94;5084959;23;20200;-67
2023/01/18 05:22:28;;;;;;;84.40;27.43;;;;;;;0.90;100.00;97489.84;5074116;23;20236;-74
2023/01/18 05:24:54;;;;;;;77.00;26.63;;;;;;;0.91;100.00;97491.47;5068914;23;20680;-69
2023/01/18 05:27:21;;;;;;;81.27;26.87;;;;;;;0.95;100.00;97481.50;5086522;23;20200;-71
2023/01/18 05:29:47;;;;;;;87.13;27.67;;;;;;;0.95;100.00;97491.97;5065543;23;22793;-73
2023/01/18 05:32:14;;;;;;;82.13;27.23;;;;;;;0.90;100.00;97489.03;5072278;23;22105;-69
2023/01/18 05:34:41;;;;;;;85.67;27.40;;;;;;;0.97;100.00;97495.25;5063061;23;20207;-74
2023/01/18 05:37:07;;;;;;;87.00;27.30;;;;;;;0.92;100.00;97487.06;5063300;23;20293;-68
2023/01/18 05:39:34;;;;;;;83.40;26.80;;;;;;;0.90;100.00;97484.59;5068238;23;25691;-73
2023/01/18 05:42:00;;;;;;;77.00;26.80;;;;;;;0.89;100.00;97469.03;5064508;23;20204;-67
2023/01/18 05:44:27;;;;;;;90.20;28.00;;;;;;;0.85;100.00;97460.69;5059910;23;20211;-72
2023/01/18 05:46:53;;;;;;;83.43;27.70;;;;;;;0.82;100.00;97445.31;5061357;23;20223;-76
2023/01/18 05:49:20;;;;;;;88.30;25.90;;;;;;;0.81;100.00;97452.31;5084662;23;20210;-78
2023/01/18 05:51:46;;;;;;;82.77;25.40;;;;;;;0.81;100.00;97444.47;5059415;23;21131;-74
2023/01/18 05:54:13;;;;;;;79.93;25.73;;;;;;;0.80;100.00;97428.94;5039238;23;20216;-72
2023/01/18 05:56:41;;;;;;;84.83;26.27;;;;;;;0.78;100.00;97429.09;5067310;23;20200;-72
2023/01/18 05:59:07;;;;;;;78.80;26.60;;;;;;;0.78;100.00;97416.00;5075685;23;21576;-69
2023/01/18 06:01:34;;;;;;;77.17;24.03;;;;;;;0.76;100.00;97399.63;5096935;23;20199;-71
2023/01/18 06:04:01;;;;;;;73.73;22.57;;;;;;;0.73;100.00;97401.75;5073436;23;21125;-70
2023/01/18 06:06:27;;;;;;;78.60;23.03;;;;;;;0.69;100.00;97400.44;5041125;23;22488;-64
2023/01/18 06:08:54;;;;;;;72.27;20.73;;;;;;;0.68;100.00;97385.69;5071760;23;22495;-64
2023/01/18 06:11:20;;;;;;;77.13;21.67;;;;;;;0.69;100.00;97385.53;5067324;23;20355;-65
2023/01/18 06:13:47;;;;;;;72.43;22.13;;;;;;;0.72;100.00;97398.31;5062573;23;20218;-66
2023/01/18 06:16:14;;;;;;;73.27;22.63;;;;;;;0.74;100.00;97388.50;5058979;23;20603;-63
2023/01/18 06:18:40;;;;;;;72.77;22.70;;;;;;;0.72;100.00;97393.06;5064904;23;20203;-64
2023/01/18 06:21:09;;;;;;;74.73;21.77;;;;;;;0.71;100.00;97388.00;5087508;23;20207;-64
2023/01/18 06:23:36;;;;;;;69.90;22.77;;;;;;;0.69;100.00;97377.69;5056277;23;22910;-64
2023/01/18 06:26:03;;;;;;;79.00;21.63;;;;;;;0.67;100.00;97368.38;5067421;23;20235;-65
2023/01/18 06:28:30;;;;;;;71.77;21.47;;;;;;;0.67;100.00;97368.38;5079456;23;21198;-67
2023/01/18 06:30:56;;;;;;;70.30;22.23;;;;;;;0.66;100.00;97349.22;5069024;23;25187;-67
2023/01/18 06:33:23;;;;;;;78.53;22.30;;;;;;;0.66;100.00;97328.28;5046241;23;20315;-67
2023/01/18 06:35:51;;;;;;;68.83;21.50;;;;;;;0.66;100.00;97324.88;5056612;23;22841;-72
2023/01/18 06:38:17;;;;;;;71.20;21.43;;;;;;;0.66;100.00;97324.88;5063157;23;22070;-71
2023/01/18 06:40:45;;;;;;;69.13;20.83;;;;;;;0.64;100.00;97317.16;5066334;23;21868;-69
2023/01/18 06:43:12;;;;;;;70.10;20.30;;;;;;;0.65;100.00;97316.19;5090172;23;20267;-67
2023/01/18 06:45:40;;;;;;;71.80;19.53;;;;;;;0.66;100.00;97335.34;5056641;23;20838;-69
2023/01/18 06:48:06;;;;;;;58.07;18.27;;;;;;;0.66;100.00;97364.94;5060386;23;20210;-65
2023/01/18 06:50:33;;;;;;;59.27;17.60;;;;;;;0.70;100.00;97389.78;5066409;23;20230;-69
2023/01/18 06:53:00;;;;;;;48.67;16.77;;;;;;;0.74;100.00;97388.50;5047507;23;20332;-74
2023/01/18 06:55:27;;;;;;;54.50;17.53;;;;;;;0.73;100.00;97368.56;5055807;23;20215;-71
2023/01/18 06:57:55;;;;;;;52.83;16.80;;;;;;;0.75;100.00;97363.97;5045099;23;20274;-67
2023/01/18 07:00:22;;;;;;;60.70;17.63;;;;;;;0.78;100.00;97360.22;5070488;23;20332;-73
2023/01/18 07:02:51;;;;;;;53.27;16.43;;;;;;;0.79;100.00;97352.19;5087086;23;20219;-68
2023/01/18 07:05:21;;;;;;;53.47;15.63;;;;;;;0.80;100.00;97353.03;5097042;23;20208;-70
2023/01/18 07:07:48;;;;;;;54.13;16.63;;;;;;;0.77;100.00;97330.63;5073355;23;20218;-69
2023/01/18 07:10:15;;;;;;;47.97;16.97;;;;;;;0.77;100.00;97329.78;5070802;23;20215;-72
2023/01/18 07:12:46;;;;;;;46.50;15.47;;;;;;;0.80;100.00;97327.69;5082658;23;20234;-69
2023/01/18 07:15:13;;;;;;;48.47;16.23;;;;;;;0.78;100.00;97334.88;5041248;23;20243;-71
2023/01/18 07:17:49;;;;;;;44.80;15.77;;;;;;;0.79;100.00;97341.72;5066759;23;20259;-70
2023/01/18 07:20:16;;;;;;;48.57;15.43;;;;;;;0.77;100.00;97348.94;5057713;23;20200;-72
2023/01/18 07:22:42;;;;;;;46.83;15.20;;;;;;;0.80;100.00;97353.84;5089594;23;21072;-70
2023/01/18 07:25:12;;;;;;;43.90;14.90;;;;;;;0.83;100.00;97369.22;5061213;23;20383;-71
2023/01/18 07:27:42;;;;;;;38.73;13.93;;;;;;;0.84;100.00;97370.88;5073781;23;20227;-71
2023/01/18 07:30:12;;;;;;;35.43;13.53;;;;;;;0.88;100.00;97379.22;5085049;23;20210;-71
2023/01/18 07:32:39;;;;;;;45.73;15.93;;;;;;;0.88;100.00;97374.00;5069842;23;21044;-68
2023/01/18 07:35:06;;;;;;;40.67;14.10;;;;;;;0.89;100.00;97369.56;5096255;23;21516;-70
2023/01/18 07:37:33;;;;;;;43.87;14.43;;;;;;;0.91;100.00;97359.75;5055652;23;20299;-70
2023/01/18 07:39:59;;;;;;;35.77;12.47;;;;;;;0.95;100.00;97355.84;5081138;23;20220;-71
2023/01/18 07:42:26;;;;;;;37.93;14.97;;;;;;;0.91;100.00;97355.34;5070152;23;21234;-72
2023/01/18 07:44:52;;;;;;;41.63;14.30;;;;;;;0.94;100.00;97359.47;5062030;23;20416;-69
2023/01/18 07:47:19;;;;;;;41.03;13.93;;;;;;;0.90;100.00;97353.72;5049365;23;20212;-69
2023/01/18 07:49:46;;;;;;;40.50;13.97;;;;;;;0.84;100.00;97355.19;5081239;23;20351;-68
2023/01/18 07:52:12;;;;;;;34.80;13.73;;;;;;;0.86;100.00;97351.56;5056875;23;20356;-70
2023/01/18 07:54:39;;;;;;;38.17;13.77;;;;;;;0.88;100.00;97354.84;5073505;23;20226;-70
2023/01/18 07:57:05;;;;;;;40.90;13.63;;;;;;;0.85;100.00;97366.47;5071936;23;21557;-69
2023/01/18 07:59:32;;;;;;;36.77;12.77;;;;;;;0.83;100.00;97358.75;5091793;23;22182;-69
2023/01/18 08:01:59;;;;;;;35.37;13.27;;;;;;;0.84;100.00;97349.09;5076259;23;20270;-70
2023/01/18 08:04:25;;;;;;;39.57;12.37;;;;;;;0.81;100.00;97352.03;5085025;23;20290;-68
2023/01/18 08:06:52;;;;;;;37.87;12.73;;;;;;;0.80;100.00;97348.63;5060214;23;20376;-69
2023/01/18 08:09:21;;;;;;;32.80;12.53;;;;;;;0.80;100.00;97343.38;5061659;23;20387;-70
2023/01/18 08:11:48;;;;;;;33.43;13.27;;;;;;;0.81;100.00;97337.16;5066372;23;20211;-69
2023/01/18 08:14:15;;;;;;;34.73;13.93;;;;;;;0.79;100.00;97333.88;5059752;23;20212;-69
2023/01/18 08:16:42;;;;;;;39.77;14.93;;;;;;;0.79;100.00;97338.28;5083192;23;20745;-67
2023/01/18 08:19:08;;;;;;;36.30;13.13;;;;;;;0.78;100.00;97340.09;5101375;23;21833;-69
2023/01/18 08:21:35;;;;;;;34.43;12.90;;;;;;;0.83;100.00;97347.47;5079209;23;20271;-70
2023/01/18 08:24:02;;;;;;;31.23;12.20;;;;;;;0.82;100.00;97336.19;5065435;23;20246;-68
2023/01/18 08:26:29;;;;;;;31.33;12.30;;;;;;;0.81;100.00;97326.69;5098134;23;20264;-69
2023/01/18 08:28:56;;;;;;;36.57;11.90;;;;;;;0.81;100.00;97318.84;5083844;23;20306;-67
2023/01/18 08:31:22;;;;;;;33.83;12.50;;;;;;;0.81;100.00;97313.59;5069500;23;20271;-65
2023/01/18 08:33:49;;;;;;;34.17;13.63;;;;;;;0.80;100.00;97306.75;5081863;23;20375;-65
2023/01/18 08:36:21;;;;;;;38.50;13.37;;;;;;;0.76;100.00;97302.78;5063318;23;20237;-72
2023/01/18 08:38:49;;;;;;;34.47;12.87;;;;;;;0.79;100.00;97294.63;5059365;23;20252;-67
2023/01/18 08:41:17;;;;;;;32.07;11.47;;;;;;;0.77;100.00;97293.97;5052098;23;20353;-72
2023/01/18 08:43:49;;;;;;;32.17;12.17;;;;;;;0.81;100.00;97284.81;5053858;23;20205;-66
2023/01/18 08:46:16;;;;;;;28.10;11.13;;;;;;;0.81;100.00;97305.75;5036127;23;22973;-68
2023/01/18 08:48:42;;;;;;;30.73;11.83;;;;;;;0.80;100.00;97317.22;5063443;23;20204;-66
2023/01/18 08:51:09;;;;;;;29.37;10.17;;;;;;;0.83;100.00;97316.88;5063055;23;20279;-70
2023/01/18 08:53:36;;;;;;;29.43;11.60;;;;;;;0.84;100.00;97309.84;5106169;23;20224;-69
2023/01/18 08:56:05;;;;;;;28.90;12.10;;;;;;;0.82;100.00;97315.25;5060330;23;20427;-70
2023/01/18 08:58:32;;;;;;;32.43;11.80;;;;;;;0.86;100.00;97314.94;5097033;23;21983;-70
2023/01/18 09:00:58;;;;;;;32.10;12.57;;;;;;;0.89;100.00;97323.28;5066404;23;20214;-67
2023/01/18 09:03:25;;;;;;;31.30;12.83;;;;;;;0.88;100.00;97328.69;5061709;23;20618;-67
2023/01/18 09:05:51;;;;;;;28.40;12.10;;;;;;;0.88;100.00;97333.91;5065849;23;20214;-65
2023/01/18 09:08:21;;;;;;;29.57;12.73;;;;;;;0.87;100.00;97321.78;5071000;23;20204;-67
2023/01/18 09:10:48;;;;;;;31.57;13.80;;;;;;;0.87;100.00;97312.16;5037941;23;20384;-67
2023/01/18 09:13:14;;;;;;;34.63;14.40;;;;;;;0.90;100.00;97321.47;5063692;23;21085;-68
2023/01/18 09:15:41;;;;;;;29.90;13.23;;;;;;;0.90;100.00;97318.88;5101091;23;20214;-68
2023/01/18 09:18:08;;;;;;;35.77;13.40;;;;;;;0.88;100.00;97302.50;5096611;23;20212;-69
2023/01/18 09:20:35;;;;;;;31.83;12.73;;;;;;;0.89;100.00;97306.75;5056752;23;20295;-65
2023/01/18 09:23:09;;;;;;;31.10;13.33;;;;;;;0.91;100.00;97302.16;5067035;23;22970;-66
2023/01/18 09:25:36;;;;;;;36.20;13.27;;;;;;;0.98;100.00;97295.31;5070242;23;20203;-68
2023/01/18 09:28:03;;;;;;;31.87;13.37;;;;;;;0.96;100.00;97292.03;5059706;23;21174;-68
2023/01/18 09:30:30;;;;;;;33.67;14.37;;;;;;;0.98;100.00;97282.22;5091386;23;20215;-66
2023/01/18 09:32:57;;;;;;;28.63;13.40;;;;;;;0.99;100.00;97273.41;5053388;23;20208;-68
2023/01/18 09:35:24;;;;;;;32.93;13.93;;;;;;;0.99;100.00;97273.41;5055184;23;20211;-68
2023/01/18 09:37:51;;;;;;;31.87;13.17;;;;;;;1.00;100.00;97257.50;5066488;23;23200;-72
2023/01/18 09:40:19;;;;;;;28.23;12.93;;;;;;;1.04;100.00;97244.91;5072479;23;20275;-66
2023/01/18 09:42:48;;;;;;;24.50;11.47;;;;;;;1.05;100.00;97244.75;5077738;23;21476;-69
2023/01/18 09:45:30;;;;;;;24.77;12.10;;;;;;;1.05;100.00;97241.31;5061135;23;20653;-68
2023/01/18 09:48:04;;;;;;;27.23;12.17;;;;;;;1.09;100.00;97254.91;5066136;23;20403;-68
2023/01/18 09:50:41;;;;;;;25.07;12.47;;;;;;;1.08;100.00;97242.78;5056738;23;20649;-67
2023/01/18 09:53:56;;;;;;;26.40;10.50;;;;;;;1.04;100.00;97240.50;5078327;23;20783;-66
2023/01/18 09:56:26;;;;;;;24.80;11.00;;;;;;;1.07;100.00;97241.97;5064769;23;25036;-68
2023/01/18 09:59:14;;;;;;;30.50;10.63;;;;;;;1.05;100.00;97251.78;5045861;23;20210;-67
2023/01/18 10:01:40;;;;;;;23.27;9.53;;;;;;;1.02;100.00;97257.34;5098049;23;20210;-66
2023/01/18 10:04:23;;;;;;;22.47;10.57;;;;;;;1.00;100.00;97249.66;5069978;23;20210;-67
2023/01/18 10:07:01;;;;;;;20.07;9.40;;;;;;;1.00;100.00;97249.66;5046646;23;25105;-69
2023/01/18 10:09:37;;;;;;;20.60;10.17;;;;;;;1.00;100.00;97254.06;5053570;23;20319;-67
2023/01/18 10:12:30;;;;;;;19.43;10.03;;;;;;;1.02;100.00;97231.97;5079531;23;20300;-68
2023/01/18 10:15:03;;;;;;;21.17;9.83;;;;;;;1.05;100.00;97236.06;5072182;23;20210;-65
2023/01/18 10:17:34;;;;;;;19.80;9.67;;;;;;;1.00;100.00;97227.91;5060165;23;21163;-66
2023/01/18 10:20:13;;;;;;;23.20;10.13;;;;;;;1.02;100.00;97246.88;5073635;23;20706;-66
2023/01/18 10:23:08;;;;;;;23.07;9.90;;;;;;;1.01;100.00;97245.25;5044349;23;20844;-66
2023/01/18 10:25:51;;;;;;;21.73;9.57;;;;;;;1.05;100.00;97247.38;5084514;23;20204;-65
2023/01/18 10:28:26;;;;;;;24.17;9.83;;;;;;;1.07;100.00;97249.00;5076681;23;21178;-66
2023/01/18 10:31:02;;;;;;;18.80;9.97;;;;;;;1.04;100.00;97245.72;5074980;23;21619;-64
2023/01/18 10:33:35;;;;;;;20.97;9.93;;;;;;;1.09;100.00;97239.19;5070296;23;20315;-66
2023/01/18 10:36:10;;;;;;;19.73;10.23;;;;;;;1.10;100.00;97231.19;5050489;23;20239;-65
2023/01/18 10:38:39;;;;;;;20.13;10.23;;;;;;;1.07;100.00;97223.63;5127054;23;20204;-67
2023/01/18 10:41:17;;;;;;;20.20;10.90;;;;;;;1.08;100.00;97212.19;5071644;23;20831;-67
2023/01/18 10:43:44;;;;;;;19.73;9.77;;;;;;;1.06;100.00;97201.06;5058394;23;21690;-67
2023/01/18 10:46:16;;;;;;;20.27;10.30;;;;;;;1.11;100.00;97205.81;5071119;23;20204;-65
2023/01/18 10:48:48;;;;;;;18.60;9.67;;;;;;;1.11;100.00;97214.47;5073792;23;20735;-68
2023/01/18 10:51:36;;;;;;;17.47;8.93;;;;;;;1.15;100.00;97228.88;5095204;23;20241;-65
2023/01/18 10:54:21;;;;;;;19.37;9.93;;;;;;;1.12;100.00;97226.56;5073108;23;20257;-65
2023/01/18 10:57:00;;;;;;;20.43;10.63;;;;;;;1.15;100.00;97215.78;5057784;23;20208;-67
2023/01/18 10:59:34;;;;;;;23.40;11.93;;;;;;;1.11;100.00;97205.81;5070189;23;20200;-66
2023/01/18 11:02:01;;;;;;;22.73;11.77;;;;;;;1.11;100.00;97197.94;5081086;23;24936;-65
2023/01/18 11:04:30;;;;;;;25.83;12.00;;;;;;;1.08;100.00;97200.88;5087308;23;25523;-65
2023/01/18 11:07:01;;;;;;;22.30;11.70;;;;;;;1.06;100.00;97187.97;5045943;23;20200;-67
2023/01/18 11:09:39;;;;;;;19.90;10.77;;;;;;;1.08;100.00;97199.09;5060178;23;20307;-65
2023/01/18 11:12:42;;;;;;;20.80;11.30;;;;;;;1.14;100.00;97195.81;5084054;23;21024;-66
2023/01/18 11:15:14;;;;;;;17.00;9.87;;;;;;;1.14;100.00;97193.19;5094684;23;20677;-66
2023/01/18 11:17:59;;;;;;;21.83;10.77;;;;;;;1.18;100.00;97189.25;5081399;23;20204;-66
2023/01/18 11:20:45;;;;;;;18.60;10.67;;;;;;;1.15;100.00;97189.59;5096955;23;20208;-65
2023/01/18 11:23:24;;;;;;;20.70;10.33;;;;;;;1.10;100.00;97186.66;5074833;23;20263;-65
2023/01/18 11:26:04;;;;;;;20.93;10.50;;;;;;;1.09;100.00;97192.88;5086709;23;22935;-66
2023/01/18 11:28:57;;;;;;;22.27;11.73;;;;;;;1.10;100.00;97191.06;5092781;23;20219;-68
2023/01/18 11:31:27;;;;;;;26.07;11.93;;;;;;;1.12;100.00;97195.16;5096977;23;25667;-66
2023/01/18 11:33:57;;;;;;;19.70;10.77;;;;;;;1.16;100.00;97190.41;5105142;23;20214;-66
2023/01/18 11:36:34;;;;;;;20.20;10.63;;;;;;;1.14;100.00;97189.75;5124878;23;20223;-68
2023/01/18 11:39:28;;;;;;;21.27;10.67;;;;;;;1.10;100.00;97185.81;5102544;23;21606;-66
2023/01/18 11:42:17;;;;;;;20.10;10.20;;;;;;;1.15;100.00;97191.41;5105553;23;20737;-65
2023/01/18 11:45:08;;;;;;;19.50;10.43;;;;;;;1.10;100.00;97186.66;5041191;23;25498;-71
2023/01/18 11:47:44;;;;;;;20.27;10.77;;;;;;;1.13;100.00;97183.72;5084024;23;20204;-66
2023/01/18 11:50:27;;;;;;;20.60;10.33;;;;;;;1.03;100.00;97196.13;5084740;23;20892;-65
2023/01/18 11:53:13;;;;;;;20.83;10.87;;;;;;;1.02;100.00;97194.50;5083260;23;20206;-67
2023/01/18 11:55:46;;;;;;;25.10;11.13;;;;;;;1.08;100.00;97188.63;5084239;23;21415;-67
2023/01/18 11:58:27;;;;;;;20.43;10.97;;;;;;;1.07;100.00;97192.22;5042773;23;20254;-66
2023/01/18 12:01:32;;;;;;;17.73;9.43;;;;;;;1.00;100.00;97180.75;5070143;23;21656;-67
2023/01/18 12:04:13;;;;;;;18.90;10.03;;;;;;;1.03;100.00;97181.28;5025703;23;21095;-67
2023/01/18 12:07:04;;;;;;;16.73;9.10;;;;;;;0.99;100.00;97179.16;5046796;23;20199;-64
2023/01/18 12:09:33;;;;;;;17.07;8.70;;;;;;;0.96;100.00;97187.31;5080423;23;22294;-67